createdAt,value
2023-05-31T00:01:16.566Z,80.40
2023-05-31T00:03:44.632Z,80.30
2023-05-31T00:06:12.046Z,80.10
2023-05-31T00:08:40.160Z,79.90
2023-05-31T00:11:08.253Z,79.60
2023-05-31T00:13:35.220Z,79.20
2023-05-31T00:16:02.023Z,78.90
2023-05-31T00:18:28.881Z,79.00
2023-05-31T00:20:55.775Z,78.60
2023-05-31T00:23:22.642Z,78.40
2023-05-31T00:25:49.477Z,78.10
2023-05-31T00:28:16.485Z,78.20
2023-05-31T00:30:43.478Z,77.90
2023-05-31T00:33:10.387Z,77.80
2023-05-31T00:35:37.222Z,77.80
2023-05-31T00:38:07.703Z,77.80
2023-05-31T00:40:35.388Z,77.50
2023-05-31T00:43:02.531Z,77.20
2023-05-31T00:45:30.589Z,77.20
2023-05-31T00:47:58.078Z,77.40
2023-05-31T00:50:25.480Z,78.20
2023-05-31T00:52:55.587Z,77.80
2023-05-31T00:55:22.967Z,78.10
2023-05-31T00:57:50.090Z,78.40
2023-05-31T01:00:17.827Z,78.40
2023-05-31T01:02:44.895Z,78.60
2023-05-31T01:05:12.027Z,78.90
2023-05-31T01:07:38.970Z,79.00
2023-05-31T01:10:07.759Z,79.20
2023-05-31T01:13:06.026Z,79.30
2023-05-31T01:15:45.413Z,79.40
2023-05-31T01:18:26.634Z,79.40
2023-05-31T01:20:55.317Z,79.70
2023-05-31T01:23:54.339Z,79.70
2023-05-31T01:26:28.476Z,79.70
2023-05-31T01:29:00.717Z,80.00
2023-05-31T01:31:31.254Z,79.00
2023-05-31T01:33:58.624Z,79.90
2023-05-31T01:36:25.664Z,80.10
2023-05-31T01:38:52.578Z,79.80
2023-05-31T01:41:21.479Z,79.80
2023-05-31T01:43:48.831Z,79.10
2023-05-31T01:46:18.406Z,78.90
2023-05-31T01:48:47.161Z,78.70
2023-05-31T01:51:16.067Z,78.50
2023-05-31T01:53:43.554Z,78.50
2023-05-31T01:56:11.722Z,77.80
2023-05-31T01:58:42.761Z,77.50
2023-05-31T02:01:12.309Z,77.00
2023-05-31T02:03:40.621Z,77.20
2023-05-31T02:06:07.563Z,77.70
2023-05-31T02:08:34.323Z,77.70
2023-05-31T02:11:01.366Z,77.10
2023-05-31T02:13:29.164Z,77.20
2023-05-31T02:15:56.880Z,78.40
2023-05-31T02:18:24.366Z,79.70
2023-05-31T02:20:51.402Z,78.60
2023-05-31T02:23:18.398Z,80.70
2023-05-31T02:25:50.240Z,82.90
2023-05-31T02:28:17.644Z,84.00
2023-05-31T02:31:01.756Z,83.30
2023-05-31T02:33:29.246Z,85.20
2023-05-31T02:35:59.701Z,85.10
2023-05-31T02:38:28.642Z,86.10
2023-05-31T02:40:55.660Z,88.10
2023-05-31T02:43:22.528Z,88.60
2023-05-31T02:45:49.588Z,89.10
2023-05-31T02:48:16.365Z,89.40
2023-05-31T02:50:43.196Z,89.80
2023-05-31T02:53:09.963Z,90.20
2023-05-31T02:55:38.677Z,90.70
2023-05-31T02:58:05.704Z,90.70
2023-05-31T03:00:32.522Z,91.10
2023-05-31T03:02:59.533Z,91.20
2023-05-31T03:05:27.343Z,91.10
2023-05-31T03:07:54.180Z,91.50
2023-05-31T03:10:21.180Z,91.50
2023-05-31T03:12:48.249Z,91.90
2023-05-31T03:15:15.123Z,92.60
2023-05-31T03:17:42.283Z,92.50
2023-05-31T03:20:10.006Z,93.20
2023-05-31T03:22:37.859Z,92.40
2023-05-31T03:25:05.781Z,92.70
2023-05-31T03:27:32.977Z,93.40
2023-05-31T03:30:01.017Z,93.70
2023-05-31T03:32:28.033Z,93.40
2023-05-31T03:34:55.172Z,93.40
2023-05-31T03:37:22.242Z,94.70
2023-05-31T03:39:49.214Z,94.80
2023-05-31T03:42:16.623Z,94.30
2023-05-31T03:44:44.531Z,94.30
2023-05-31T03:47:12.302Z,94.70
2023-05-31T03:49:39.469Z,95.50
2023-05-31T03:52:06.698Z,95.20
2023-05-31T03:54:33.566Z,95.20
2023-05-31T03:57:00.593Z,95.00
2023-05-31T03:59:27.421Z,95.10
2023-05-31T04:01:54.498Z,94.70
2023-05-31T04:04:21.810Z,94.80
2023-05-31T04:06:48.754Z,95.10
2023-05-31T04:09:15.688Z,95.00
2023-05-31T04:11:42.531Z,94.80
2023-05-31T04:14:09.490Z,95.20
2023-05-31T04:16:36.620Z,95.40
2023-05-31T04:19:03.904Z,95.40
2023-05-31T04:21:32.604Z,95.30
2023-05-31T04:24:00.040Z,95.30
2023-05-31T04:26:26.918Z,95.90
2023-05-31T04:28:55.054Z,95.80
2023-05-31T04:31:35.373Z,96.30
2023-05-31T04:34:10.111Z,96.10
2023-05-31T04:36:37.631Z,96.80
2023-05-31T04:39:10.242Z,97.30
2023-05-31T04:41:37.495Z,96.70
2023-05-31T04:44:04.338Z,97.00
2023-05-31T04:46:31.561Z,97.30
2023-05-31T04:48:58.599Z,97.00
2023-05-31T04:51:25.536Z,97.30
2023-05-31T04:53:52.407Z,97.10
2023-05-31T04:56:19.814Z,97.80
2023-05-31T04:58:47.454Z,97.50
2023-05-31T05:01:16.061Z,97.00
2023-05-31T05:03:43.324Z,97.10
2023-05-31T05:06:17.137Z,97.00
2023-05-31T05:08:44.635Z,97.50
2023-05-31T05:11:11.982Z,97.60
2023-05-31T05:13:39.418Z,97.80
2023-05-31T05:16:06.550Z,97.70
2023-05-31T05:18:33.652Z,97.50
2023-05-31T05:21:00.993Z,97.50
2023-05-31T05:23:27.959Z,97.40
2023-05-31T05:25:54.801Z,97.70
2023-05-31T05:28:23.380Z,96.60
2023-05-31T05:30:52.150Z,96.50
2023-05-31T05:33:19.058Z,96.30
2023-05-31T05:35:46.002Z,95.90
2023-05-31T05:38:12.941Z,94.90
2023-05-31T05:40:39.762Z,93.80
2023-05-31T05:43:07.149Z,94.00
2023-05-31T05:45:34.080Z,93.50
2023-05-31T05:48:00.894Z,92.50
2023-05-31T05:50:27.696Z,92.30
2023-05-31T05:52:54.531Z,92.20
2023-05-31T05:55:24.109Z,91.20
2023-05-31T05:57:52.466Z,90.70
2023-05-31T06:00:20.098Z,90.40
2023-05-31T06:02:46.983Z,90.50
2023-05-31T06:05:13.912Z,90.20
2023-05-31T06:07:40.835Z,90.00
2023-05-31T06:10:08.508Z,87.40
2023-05-31T06:12:35.417Z,88.50
2023-05-31T06:15:02.328Z,89.10
2023-05-31T06:17:29.210Z,88.70
2023-05-31T06:19:56.039Z,88.40
2023-05-31T06:22:22.979Z,87.70
2023-05-31T06:24:49.861Z,88.50
2023-05-31T06:27:16.771Z,88.30
2023-05-31T06:29:43.784Z,87.40
2023-05-31T06:32:10.816Z,87.40
2023-05-31T06:34:37.653Z,85.70
2023-05-31T06:37:05.375Z,86.00
2023-05-31T06:39:32.328Z,85.60
2023-05-31T06:42:01.292Z,84.90
2023-05-31T06:44:28.175Z,82.20
2023-05-31T06:46:55.359Z,80.50
2023-05-31T06:49:22.304Z,80.10
2023-05-31T06:51:49.209Z,80.70
2023-05-31T06:54:16.407Z,79.30
2023-05-31T06:56:43.536Z,78.70
2023-05-31T06:59:10.482Z,79.70
2023-05-31T07:01:37.564Z,79.70
2023-05-31T07:04:04.662Z,78.70
2023-05-31T07:06:32.846Z,79.90
2023-05-31T07:08:59.969Z,79.00
2023-05-31T07:11:26.931Z,78.20
2023-05-31T07:13:55.522Z,78.50
2023-05-31T07:16:22.478Z,78.00
2023-05-31T07:18:49.437Z,78.60
2023-05-31T07:21:16.381Z,77.70
2023-05-31T07:23:43.169Z,76.30
2023-05-31T07:26:10.096Z,76.30
2023-05-31T07:28:36.904Z,76.50
2023-05-31T07:31:04.415Z,75.50
2023-05-31T07:33:32.078Z,75.60
2023-05-31T07:36:01.743Z,75.20
2023-05-31T07:38:28.969Z,75.80
2023-05-31T07:40:55.996Z,74.10
2023-05-31T07:43:24.396Z,73.20
2023-05-31T07:45:52.718Z,75.90
2023-05-31T07:48:19.648Z,75.30
2023-05-31T07:50:47.262Z,73.60
2023-05-31T07:53:14.905Z,73.20
2023-05-31T07:55:41.728Z,73.70
2023-05-31T07:58:08.672Z,72.40
2023-05-31T08:00:36.484Z,72.40
2023-05-31T08:03:03.954Z,72.30
2023-05-31T08:05:31.161Z,72.20
2023-05-31T08:07:58.372Z,70.50
2023-05-31T08:10:25.323Z,69.30
2023-05-31T08:12:52.255Z,69.70
2023-05-31T08:15:19.644Z,70.10
2023-05-31T08:17:47.405Z,70.10
2023-05-31T08:20:17.149Z,69.70
2023-05-31T08:22:45.760Z,70.00
2023-05-31T08:25:14.151Z,69.80
2023-05-31T08:27:42.725Z,68.90
2023-05-31T08:30:11.310Z,69.70
2023-05-31T08:32:38.493Z,68.40
2023-05-31T08:35:07.678Z,68.40
2023-05-31T08:37:36.672Z,67.90
2023-05-31T08:40:05.620Z,67.70
2023-05-31T08:42:41.079Z,67.10
2023-05-31T08:45:11.434Z,67.40
2023-05-31T08:47:46.623Z,67.50
2023-05-31T08:50:14.790Z,65.00
2023-05-31T08:52:42.243Z,64.00
2023-05-31T08:55:09.483Z,65.70
2023-05-31T08:57:38.065Z,63.70
2023-05-31T09:00:12.312Z,64.40
2023-05-31T09:02:39.898Z,63.10
2023-05-31T09:05:12.356Z,65.10
2023-05-31T09:10:10.560Z,60.50
2023-05-31T09:12:37.818Z,59.40
2023-05-31T09:15:07.221Z,59.90
2023-05-31T09:17:34.465Z,59.40
2023-05-31T09:20:02.218Z,59.40
2023-05-31T09:22:29.325Z,58.10
2023-05-31T09:24:58.183Z,57.90
2023-05-31T09:27:26.668Z,58.60
2023-05-31T09:29:54.696Z,57.60
2023-05-31T09:32:21.940Z,58.40
2023-05-31T09:34:49.002Z,56.20
2023-05-31T09:37:24.381Z,57.30
2023-05-31T09:39:59.041Z,57.70
2023-05-31T09:42:27.647Z,57.20
2023-05-31T09:44:54.637Z,55.70
2023-05-31T09:47:26.882Z,56.00
2023-05-31T09:49:55.742Z,55.10
2023-05-31T09:52:34.808Z,55.30
2023-05-31T09:55:07.815Z,55.10
2023-05-31T09:57:41.915Z,56.00
2023-05-31T10:00:15.435Z,55.50
2023-05-31T10:02:45.010Z,54.00
2023-05-31T10:05:13.516Z,54.30
2023-05-31T10:07:41.989Z,55.30
2023-05-31T10:10:10.001Z,54.50
2023-05-31T10:12:45.904Z,54.70
2023-05-31T10:15:18.041Z,54.10
2023-05-31T10:17:51.159Z,52.10
2023-05-31T10:20:20.358Z,54.50
2023-05-31T10:22:50.988Z,54.10
2023-05-31T10:25:30.582Z,53.00
2023-05-31T10:28:03.877Z,53.40
2023-05-31T10:30:36.039Z,53.60
2023-05-31T10:33:14.835Z,51.00
2023-05-31T10:35:43.341Z,53.30
2023-05-31T10:38:12.109Z,53.20
2023-05-31T10:40:40.037Z,52.80
2023-05-31T10:43:28.195Z,51.80
2023-05-31T10:46:07.595Z,52.50
2023-05-31T10:48:45.091Z,51.60
2023-05-31T10:51:13.204Z,52.00
2023-05-31T10:53:41.286Z,51.00
2023-05-31T10:56:11.067Z,50.60
2023-05-31T10:58:39.134Z,50.20
2023-05-31T11:01:07.996Z,49.90
2023-05-31T11:03:40.349Z,49.50
2023-05-31T11:06:10.345Z,49.60
2023-05-31T11:08:37.514Z,49.40
2023-05-31T11:11:35.245Z,50.50
2023-05-31T11:14:06.161Z,50.30
2023-05-31T11:16:35.037Z,49.90
2023-05-31T11:19:07.509Z,49.90
2023-05-31T11:21:49.756Z,50.50
2023-05-31T11:24:31.784Z,50.70
2023-05-31T11:27:01.011Z,50.20
2023-05-31T11:29:44.099Z,49.80
2023-05-31T11:32:12.460Z,49.00
2023-05-31T11:34:57.739Z,51.30
2023-05-31T11:37:28.984Z,49.70
2023-05-31T11:39:56.407Z,49.50
2023-05-31T11:42:24.410Z,49.60
2023-05-31T11:44:51.827Z,50.10
2023-05-31T11:47:21.072Z,49.90
2023-05-31T11:49:48.849Z,49.50
2023-05-31T11:52:17.777Z,48.70
2023-05-31T11:54:49.203Z,48.50
2023-05-31T11:57:18.832Z,48.90
2023-05-31T11:59:46.075Z,50.10
2023-05-31T12:02:13.512Z,49.30
2023-05-31T12:04:43.404Z,49.70
2023-05-31T12:07:12.643Z,50.80
2023-05-31T12:09:40.009Z,50.00
2023-05-31T12:12:07.498Z,49.40
2023-05-31T12:14:35.271Z,51.60
2023-05-31T12:17:05.007Z,49.30
2023-05-31T12:19:33.507Z,49.70
2023-05-31T12:22:03.642Z,49.90
2023-05-31T12:24:30.715Z,48.90
2023-05-31T12:26:58.231Z,47.70
2023-05-31T12:29:32.647Z,48.00
2023-05-31T12:32:05.492Z,47.80
2023-05-31T12:34:35.293Z,48.40
2023-05-31T12:37:11.201Z,48.80
2023-05-31T12:39:39.971Z,48.60
2023-05-31T12:42:07.554Z,50.30
2023-05-31T12:44:37.371Z,48.90
2023-05-31T12:47:07.772Z,48.30
2023-05-31T12:49:36.623Z,47.90
2023-05-31T12:52:07.646Z,47.70
2023-05-31T12:54:36.135Z,47.60
2023-05-31T12:57:05.433Z,47.20
2023-05-31T12:59:33.250Z,46.90
2023-05-31T13:02:01.252Z,47.80
2023-05-31T13:04:28.775Z,47.60
2023-05-31T13:06:58.720Z,46.10
2023-05-31T13:09:25.839Z,45.90
2023-05-31T13:11:52.854Z,45.60
2023-05-31T13:14:25.236Z,44.50
2023-05-31T13:16:53.947Z,45.00
2023-05-31T13:19:21.031Z,45.10
2023-05-31T13:21:47.943Z,45.30
2023-05-31T13:24:15.991Z,45.20
2023-05-31T13:26:43.001Z,45.00
2023-05-31T13:29:09.912Z,44.90
2023-05-31T13:31:36.919Z,45.80
2023-05-31T13:34:03.911Z,44.80
2023-05-31T13:36:31.633Z,46.10
2023-05-31T13:38:58.551Z,46.10
2023-05-31T13:41:25.317Z,45.90
2023-05-31T13:43:52.099Z,44.70
2023-05-31T13:46:19.511Z,45.70
2023-05-31T13:48:46.857Z,46.30
2023-05-31T13:51:13.781Z,47.40
2023-05-31T13:53:40.814Z,48.30
2023-05-31T13:56:09.967Z,48.00
2023-05-31T13:58:37.816Z,48.00
2023-05-31T14:01:08.348Z,47.80
2023-05-31T14:03:36.391Z,47.40
2023-05-31T14:06:03.995Z,48.00
2023-05-31T14:08:31.844Z,50.20
2023-05-31T14:10:59.137Z,50.50
2023-05-31T14:13:26.330Z,49.70
2023-05-31T14:15:53.792Z,51.20
2023-05-31T14:18:20.603Z,51.40
2023-05-31T14:20:48.465Z,51.40
2023-05-31T14:23:15.449Z,50.00
2023-05-31T14:25:42.477Z,49.30
2023-05-31T14:28:09.370Z,49.20
2023-05-31T14:30:36.305Z,50.50
2023-05-31T14:33:04.233Z,50.90
2023-05-31T14:35:32.018Z,49.00
2023-05-31T14:38:07.010Z,48.80
2023-05-31T14:40:40.121Z,50.20
2023-05-31T14:43:07.124Z,51.10
2023-05-31T14:45:33.914Z,50.60
2023-05-31T14:48:01.032Z,52.50
2023-05-31T14:50:27.946Z,52.40
2023-05-31T14:52:54.778Z,51.80
2023-05-31T14:55:21.784Z,51.60
2023-05-31T14:57:49.056Z,50.60
2023-05-31T15:00:16.171Z,51.90
2023-05-31T15:02:43.214Z,52.10
2023-05-31T15:05:11.071Z,51.20
2023-05-31T15:07:38.321Z,50.90
2023-05-31T15:10:05.973Z,51.40
2023-05-31T15:12:32.859Z,51.30
2023-05-31T15:14:59.712Z,50.50
2023-05-31T15:17:26.760Z,52.00
2023-05-31T15:19:53.685Z,50.80
2023-05-31T15:22:20.549Z,51.00
2023-05-31T15:24:47.433Z,51.70
2023-05-31T15:27:15.111Z,51.30
2023-05-31T15:29:42.159Z,52.00
2023-05-31T15:32:09.161Z,51.90
2023-05-31T15:34:36.067Z,51.80
2023-05-31T15:37:02.960Z,52.00
2023-05-31T15:39:29.824Z,52.50
2023-05-31T15:41:56.632Z,51.80
2023-05-31T15:44:25.628Z,52.10
2023-05-31T15:46:52.543Z,52.60
2023-05-31T15:49:19.462Z,52.30
2023-05-31T15:51:46.425Z,52.40
2023-05-31T15:54:13.497Z,52.40
2023-05-31T15:56:40.448Z,52.00
2023-05-31T15:59:07.379Z,52.20
2023-05-31T16:01:34.327Z,52.40
2023-05-31T16:04:01.304Z,52.40
2023-05-31T16:06:28.232Z,52.40
2023-05-31T16:08:56.362Z,53.10
2023-05-31T16:11:23.215Z,53.10
2023-05-31T16:13:50.192Z,52.90
2023-05-31T16:16:17.199Z,53.70
2023-05-31T16:18:44.059Z,52.80
2023-05-31T16:21:10.858Z,52.90
2023-05-31T16:23:37.606Z,52.90
2023-05-31T16:26:04.541Z,54.00
2023-05-31T16:28:32.164Z,54.30
2023-05-31T16:31:00.033Z,54.40
2023-05-31T16:33:27.056Z,54.50
2023-05-31T16:35:53.910Z,55.00
2023-05-31T16:38:20.908Z,55.40
2023-05-31T16:40:47.756Z,55.80
2023-05-31T16:43:14.578Z,55.70
2023-05-31T16:45:41.430Z,56.30
2023-05-31T16:48:08.357Z,57.10
2023-05-31T16:50:35.278Z,57.00
2023-05-31T16:53:02.153Z,56.30
2023-05-31T16:55:29.067Z,57.00
2023-05-31T16:57:56.524Z,57.30
2023-05-31T17:00:23.465Z,57.50
2023-05-31T17:02:50.446Z,57.70
2023-05-31T17:05:17.295Z,57.90
2023-05-31T17:07:44.320Z,58.00
2023-05-31T17:10:11.297Z,57.80
2023-05-31T17:12:41.879Z,57.20
2023-05-31T17:15:08.955Z,56.70
2023-05-31T17:17:36.297Z,57.90
2023-05-31T17:20:04.780Z,57.30
2023-05-31T17:22:31.791Z,57.30
2023-05-31T17:24:58.597Z,57.20
2023-05-31T17:27:25.500Z,57.90
2023-05-31T17:29:53.179Z,58.10
2023-05-31T17:32:20.220Z,58.60
2023-05-31T17:34:47.026Z,58.50
2023-05-31T17:37:13.968Z,58.00
2023-05-31T17:39:40.806Z,57.90
2023-05-31T17:42:07.985Z,58.10
2023-05-31T17:44:35.069Z,58.50
2023-05-31T17:47:01.985Z,58.40
2023-05-31T17:49:28.925Z,58.80
2023-05-31T17:51:56.047Z,59.40
2023-05-31T17:54:24.207Z,59.50
2023-05-31T17:56:52.138Z,60.40
2023-05-31T17:59:18.995Z,60.50
2023-05-31T18:01:47.766Z,60.30
2023-05-31T18:04:14.963Z,60.60
2023-05-31T18:06:41.849Z,61.20
2023-05-31T18:09:09.300Z,61.70
2023-05-31T18:11:36.239Z,61.70
2023-05-31T18:14:03.465Z,61.90
2023-05-31T18:16:31.869Z,62.40
2023-05-31T18:18:58.768Z,62.50
2023-05-31T18:21:26.440Z,63.10
2023-05-31T18:23:53.304Z,63.40
2023-05-31T18:26:21.450Z,63.80
2023-05-31T18:28:49.793Z,64.10
2023-05-31T18:31:16.738Z,64.70
2023-05-31T18:33:43.749Z,64.80
2023-05-31T18:36:10.654Z,65.20
2023-05-31T18:38:46.338Z,65.50
2023-05-31T18:41:14.262Z,65.90
2023-05-31T18:43:41.614Z,66.10
2023-05-31T18:46:08.545Z,66.70
2023-05-31T18:48:37.401Z,66.90
2023-05-31T18:51:06.621Z,67.00
2023-05-31T18:53:34.458Z,68.20
2023-05-31T18:56:01.486Z,68.50
2023-05-31T18:58:30.378Z,68.60
2023-05-31T19:00:58.073Z,68.90
2023-05-31T19:03:25.896Z,69.30
2023-05-31T19:05:53.313Z,69.90
2023-05-31T19:08:20.651Z,69.70
2023-05-31T19:10:47.657Z,69.90
2023-05-31T19:13:15.077Z,70.20
2023-05-31T19:15:42.475Z,70.70
2023-05-31T19:18:18.093Z,71.30
2023-05-31T19:20:49.457Z,71.60
2023-05-31T19:23:17.678Z,72.30
2023-05-31T19:25:44.947Z,72.50
2023-05-31T19:28:12.200Z,73.00
2023-05-31T19:30:41.218Z,73.70
2023-05-31T19:33:08.290Z,74.00
2023-05-31T19:35:35.123Z,75.50
2023-05-31T19:38:01.948Z,76.50
2023-05-31T19:40:30.838Z,77.60
2023-05-31T19:42:57.954Z,78.80
2023-05-31T19:45:24.864Z,80.30
2023-05-31T19:47:51.943Z,81.40
2023-05-31T19:50:19.019Z,81.70
2023-05-31T19:52:47.245Z,83.00
2023-05-31T19:55:14.106Z,83.90
2023-05-31T19:57:40.980Z,84.00
2023-05-31T20:00:08.992Z,84.40
2023-05-31T20:02:36.002Z,85.20
2023-05-31T20:05:03.271Z,86.30
2023-05-31T20:07:30.188Z,85.80
2023-05-31T20:09:57.095Z,86.50
2023-05-31T20:12:23.997Z,87.20
2023-05-31T20:14:51.307Z,89.70
2023-05-31T20:17:18.111Z,90.50
2023-05-31T20:19:45.036Z,91.10
2023-05-31T20:22:12.025Z,91.80
2023-05-31T20:24:38.927Z,92.30
2023-05-31T20:27:06.378Z,92.20
2023-05-31T20:29:33.358Z,92.30
2023-05-31T20:32:00.396Z,92.10
2023-05-31T20:34:27.633Z,92.00
2023-05-31T20:36:54.657Z,91.90
2023-05-31T20:39:21.501Z,92.30
2023-05-31T20:41:48.388Z,93.10
2023-05-31T20:44:15.262Z,93.90
2023-05-31T20:46:42.484Z,94.70
2023-05-31T20:49:09.406Z,95.10
2023-05-31T20:51:36.348Z,95.60
2023-05-31T20:54:03.242Z,96.20
2023-05-31T20:56:30.559Z,96.70
2023-05-31T20:58:57.776Z,97.20
2023-05-31T21:01:24.796Z,97.30
2023-05-31T21:03:52.181Z,97.60
2023-05-31T21:06:19.165Z,97.70
2023-05-31T21:08:46.099Z,97.70
2023-05-31T21:11:12.967Z,97.70
2023-05-31T21:13:39.949Z,97.80
2023-05-31T21:16:07.204Z,98.10
2023-05-31T21:18:34.160Z,98.30
2023-05-31T21:21:01.162Z,98.40
2023-05-31T21:23:28.358Z,98.80
2023-05-31T21:25:55.303Z,99.30
2023-05-31T21:28:22.128Z,99.50
2023-05-31T21:30:48.929Z,99.60
2023-05-31T21:33:15.871Z,99.70
2023-05-31T21:35:43.342Z,99.90
2023-05-31T21:38:10.790Z,99.90
2023-05-31T21:40:37.890Z,99.90
2023-05-31T21:43:04.896Z,99.90
2023-05-31T21:45:31.778Z,99.90
2023-05-31T21:47:58.696Z,99.90
2023-05-31T21:50:25.598Z,99.90
2023-05-31T21:52:52.638Z,99.90
2023-05-31T21:55:19.466Z,99.90
2023-05-31T21:57:46.538Z,99.90
2023-05-31T22:00:15.304Z,99.90
2023-05-31T22:02:42.300Z,99.90
2023-05-31T22:05:09.393Z,99.90
2023-05-31T22:07:37.778Z,99.90
2023-05-31T22:10:06.372Z,99.90
2023-05-31T22:12:35.429Z,99.90
2023-05-31T22:15:03.337Z,99.90
2023-05-31T22:17:30.725Z,99.90
2023-05-31T22:20:01.526Z,99.90
2023-05-31T22:22:29.715Z,99.90
2023-05-31T22:25:09.357Z,99.90
2023-05-31T22:27:40.017Z,99.90
2023-05-31T22:30:07.665Z,99.90
2023-05-31T22:32:34.597Z,99.90
2023-05-31T22:35:01.618Z,99.90
2023-05-31T22:37:28.565Z,99.90
2023-05-31T22:39:55.898Z,99.90
2023-05-31T22:42:23.233Z,99.90
2023-05-31T22:44:50.315Z,99.90
2023-05-31T22:47:17.675Z,99.90
2023-05-31T22:49:44.751Z,99.90
2023-05-31T22:52:11.815Z,99.90
2023-05-31T22:54:38.628Z,99.90
2023-05-31T22:57:07.150Z,99.90
2023-05-31T22:59:34.197Z,99.90
2023-05-31T23:02:01.375Z,99.90
2023-05-31T23:04:28.315Z,99.90
2023-05-31T23:06:55.227Z,99.90
2023-05-31T23:09:22.318Z,99.90
2023-05-31T23:11:50.556Z,99.90
2023-05-31T23:14:18.481Z,99.90
2023-05-31T23:16:46.809Z,99.90
2023-05-31T23:19:14.310Z,99.90
2023-05-31T23:21:46.362Z,99.90
2023-05-31T23:24:13.415Z,99.90
2023-05-31T23:26:40.379Z,99.90
2023-05-31T23:29:07.291Z,99.90
2023-05-31T23:31:34.219Z,99.90
2023-05-31T23:34:01.070Z,99.90
2023-05-31T23:36:27.856Z,99.90
2023-05-31T23:38:57.011Z,99.90
2023-05-31T23:41:24.926Z,99.90
2023-05-31T23:43:51.724Z,99.90
2023-05-31T23:46:18.589Z,99.90
2023-05-31T23:48:45.462Z,99.90
2023-05-31T23:51:12.398Z,99.90
2023-05-31T23:53:39.461Z,99.90
2023-05-31T23:56:06.776Z,99.90
2023-05-31T23:58:34.217Z,99.90
